sensor_id;sensor_type;location;lat;lon;timestamp;P1;durP1;ratioP1;P2;durP2;ratioP2
26656;SDS011;14279;50.010;8.260;2023-04-06T00:01:00;15.50;;;6.70;;
26656;SDS011;14279;50.010;8.260;2023-04-06T00:03:26;10.63;;;6.00;;
26656;SDS011;14279;50.010;8.260;2023-04-06T00:05:51;9.00;;;6.07;;
26656;SDS011;14279;50.010;8.260;2023-04-06T00:08:16;11.33;;;5.40;;
26656;SDS011;14279;50.010;8.260;2023-04-06T00:10:42;12.07;;;6.00;;
26656;SDS011;14279;50.010;8.260;2023-04-06T00:13:07;10.10;;;6.47;;
26656;SDS011;14279;50.010;8.260;2023-04-06T00:15:33;8.70;;;5.50;;
26656;SDS011;14279;50.010;8.260;2023-04-06T00:17:58;13.80;;;6.70;;
26656;SDS011;14279;50.010;8.260;2023-04-06T00:20:23;10.93;;;6.63;;
26656;SDS011;14279;50.010;8.260;2023-04-06T00:22:49;12.43;;;6.40;;
26656;SDS011;14279;50.010;8.260;2023-04-06T00:25:15;15.50;;;6.33;;
26656;SDS011;14279;50.010;8.260;2023-04-06T00:27:40;11.03;;;6.83;;
26656;SDS011;14279;50.010;8.260;2023-04-06T00:30:06;14.37;;;6.83;;
26656;SDS011;14279;50.010;8.260;2023-04-06T00:32:33;9.57;;;6.77;;
26656;SDS011;14279;50.010;8.260;2023-04-06T00:34:59;8.70;;;6.33;;
26656;SDS011;14279;50.010;8.260;2023-04-06T00:37:25;13.63;;;7.70;;
26656;SDS011;14279;50.010;8.260;2023-04-06T00:39:50;9.30;;;7.13;;
26656;SDS011;14279;50.010;8.260;2023-04-06T00:42:16;13.53;;;9.53;;
26656;SDS011;14279;50.010;8.260;2023-04-06T00:44:43;11.27;;;8.30;;
26656;SDS011;14279;50.010;8.260;2023-04-06T00:47:08;15.27;;;8.20;;
26656;SDS011;14279;50.010;8.260;2023-04-06T00:49:34;19.10;;;8.80;;
26656;SDS011;14279;50.010;8.260;2023-04-06T00:52:00;13.43;;;8.37;;
26656;SDS011;14279;50.010;8.260;2023-04-06T00:54:26;14.67;;;7.57;;
26656;SDS011;14279;50.010;8.260;2023-04-06T00:56:52;13.20;;;8.30;;
26656;SDS011;14279;50.010;8.260;2023-04-06T00:59:17;13.20;;;8.23;;
26656;SDS011;14279;50.010;8.260;2023-04-06T01:01:42;28.87;;;7.43;;
26656;SDS011;14279;50.010;8.260;2023-04-06T01:04:08;15.20;;;7.40;;
26656;SDS011;14279;50.010;8.260;2023-04-06T01:06:33;12.27;;;8.33;;
26656;SDS011;14279;50.010;8.260;2023-04-06T01:08:58;10.50;;;7.70;;
26656;SDS011;14279;50.010;8.260;2023-04-06T01:11:24;22.77;;;8.77;;
26656;SDS011;14279;50.010;8.260;2023-04-06T01:13:49;12.03;;;8.23;;
26656;SDS011;14279;50.010;8.260;2023-04-06T01:16:15;13.60;;;7.57;;
26656;SDS011;14279;50.010;8.260;2023-04-06T01:18:40;13.87;;;8.10;;
26656;SDS011;14279;50.010;8.260;2023-04-06T01:21:07;11.30;;;7.67;;
26656;SDS011;14279;50.010;8.260;2023-04-06T01:23:33;11.90;;;7.70;;
26656;SDS011;14279;50.010;8.260;2023-04-06T01:25:59;11.57;;;8.40;;
26656;SDS011;14279;50.010;8.260;2023-04-06T01:28:24;13.80;;;8.23;;
26656;SDS011;14279;50.010;8.260;2023-04-06T01:30:50;18.70;;;7.93;;
26656;SDS011;14279;50.010;8.260;2023-04-06T01:33:15;12.83;;;7.73;;
26656;SDS011;14279;50.010;8.260;2023-04-06T01:35:41;10.97;;;7.63;;
26656;SDS011;14279;50.010;8.260;2023-04-06T01:38:06;13.10;;;7.20;;
26656;SDS011;14279;50.010;8.260;2023-04-06T01:40:31;15.30;;;8.20;;
26656;SDS011;14279;50.010;8.260;2023-04-06T01:42:57;14.27;;;8.00;;
26656;SDS011;14279;50.010;8.260;2023-04-06T01:45:22;10.83;;;7.00;;
26656;SDS011;14279;50.010;8.260;2023-04-06T01:47:47;15.77;;;8.50;;
26656;SDS011;14279;50.010;8.260;2023-04-06T01:50:12;12.40;;;7.60;;
26656;SDS011;14279;50.010;8.260;2023-04-06T01:52:37;14.13;;;8.30;;
26656;SDS011;14279;50.010;8.260;2023-04-06T01:55:03;18.60;;;8.33;;
26656;SDS011;14279;50.010;8.260;2023-04-06T01:57:28;13.37;;;8.00;;
26656;SDS011;14279;50.010;8.260;2023-04-06T01:59:54;11.27;;;8.83;;
26656;SDS011;14279;50.010;8.260;2023-04-06T02:02:19;19.23;;;7.97;;
26656;SDS011;14279;50.010;8.260;2023-04-06T02:04:44;15.40;;;7.53;;
26656;SDS011;14279;50.010;8.260;2023-04-06T02:07:09;13.70;;;7.97;;
26656;SDS011;14279;50.010;8.260;2023-04-06T02:09:35;11.63;;;8.27;;
26656;SDS011;14279;50.010;8.260;2023-04-06T02:12:00;10.13;;;7.30;;
26656;SDS011;14279;50.010;8.260;2023-04-06T02:14:26;13.90;;;7.67;;
26656;SDS011;14279;50.010;8.260;2023-04-06T02:16:51;10.10;;;7.30;;
26656;SDS011;14279;50.010;8.260;2023-04-06T02:19:16;12.80;;;8.47;;
26656;SDS011;14279;50.010;8.260;2023-04-06T02:21:42;19.50;;;7.80;;
26656;SDS011;14279;50.010;8.260;2023-04-06T02:24:07;11.53;;;7.97;;
26656;SDS011;14279;50.010;8.260;2023-04-06T02:26:32;13.33;;;7.53;;
26656;SDS011;14279;50.010;8.260;2023-04-06T02:28:58;9.57;;;6.47;;
26656;SDS011;14279;50.010;8.260;2023-04-06T02:31:29;9.50;;;7.10;;
26656;SDS011;14279;50.010;8.260;2023-04-06T02:33:55;13.33;;;7.20;;
26656;SDS011;14279;50.010;8.260;2023-04-06T02:36:20;10.70;;;6.40;;
26656;SDS011;14279;50.010;8.260;2023-04-06T02:38:45;12.70;;;8.50;;
26656;SDS011;14279;50.010;8.260;2023-04-06T02:41:10;11.83;;;7.80;;
26656;SDS011;14279;50.010;8.260;2023-04-06T02:43:35;12.73;;;8.37;;
26656;SDS011;14279;50.010;8.260;2023-04-06T02:46:01;14.43;;;8.47;;
26656;SDS011;14279;50.010;8.260;2023-04-06T02:48:26;13.30;;;8.30;;
26656;SDS011;14279;50.010;8.260;2023-04-06T02:50:51;27.97;;;9.07;;
26656;SDS011;14279;50.010;8.260;2023-04-06T02:53:16;28.93;;;8.40;;
26656;SDS011;14279;50.010;8.260;2023-04-06T02:55:42;15.53;;;7.57;;
26656;SDS011;14279;50.010;8.260;2023-04-06T02:58:07;20.13;;;7.20;;
26656;SDS011;14279;50.010;8.260;2023-04-06T03:00:32;18.93;;;8.53;;
26656;SDS011;14279;50.010;8.260;2023-04-06T03:02:57;13.60;;;8.00;;
26656;SDS011;14279;50.010;8.260;2023-04-06T03:05:23;18.53;;;8.57;;
26656;SDS011;14279;50.010;8.260;2023-04-06T03:07:48;14.03;;;8.10;;
26656;SDS011;14279;50.010;8.260;2023-04-06T03:10:13;15.73;;;7.70;;
26656;SDS011;14279;50.010;8.260;2023-04-06T03:12:38;19.10;;;9.07;;
26656;SDS011;14279;50.010;8.260;2023-04-06T03:15:04;21.47;;;8.83;;
26656;SDS011;14279;50.010;8.260;2023-04-06T03:17:30;12.60;;;7.93;;
26656;SDS011;14279;50.010;8.260;2023-04-06T03:19:55;21.13;;;9.50;;
26656;SDS011;14279;50.010;8.260;2023-04-06T03:22:20;9.67;;;7.40;;
26656;SDS011;14279;50.010;8.260;2023-04-06T03:24:45;16.00;;;8.57;;
26656;SDS011;14279;50.010;8.260;2023-04-06T03:27:11;23.70;;;8.90;;
26656;SDS011;14279;50.010;8.260;2023-04-06T03:29:36;19.27;;;8.97;;
26656;SDS011;14279;50.010;8.260;2023-04-06T03:32:02;61.87;;;10.10;;
26656;SDS011;14279;50.010;8.260;2023-04-06T03:34:27;35.20;;;9.80;;
26656;SDS011;14279;50.010;8.260;2023-04-06T03:36:52;22.43;;;9.23;;
26656;SDS011;14279;50.010;8.260;2023-04-06T03:39:18;19.10;;;7.70;;
26656;SDS011;14279;50.010;8.260;2023-04-06T03:41:43;20.97;;;7.90;;
26656;SDS011;14279;50.010;8.260;2023-04-06T03:44:09;27.87;;;8.53;;
26656;SDS011;14279;50.010;8.260;2023-04-06T03:46:35;23.83;;;8.30;;
26656;SDS011;14279;50.010;8.260;2023-04-06T03:49:00;20.93;;;8.00;;
26656;SDS011;14279;50.010;8.260;2023-04-06T03:51:25;22.47;;;8.03;;
26656;SDS011;14279;50.010;8.260;2023-04-06T03:53:51;15.57;;;9.47;;
26656;SDS011;14279;50.010;8.260;2023-04-06T03:56:16;24.47;;;9.70;;
26656;SDS011;14279;50.010;8.260;2023-04-06T03:58:41;22.00;;;9.07;;
26656;SDS011;14279;50.010;8.260;2023-04-06T04:01:06;27.10;;;9.20;;
26656;SDS011;14279;50.010;8.260;2023-04-06T04:03:32;15.93;;;8.53;;
26656;SDS011;14279;50.010;8.260;2023-04-06T04:05:57;20.87;;;9.17;;
26656;SDS011;14279;50.010;8.260;2023-04-06T04:08:23;16.60;;;7.60;;
26656;SDS011;14279;50.010;8.260;2023-04-06T04:10:49;17.10;;;8.40;;
26656;SDS011;14279;50.010;8.260;2023-04-06T04:13:14;24.87;;;9.37;;
26656;SDS011;14279;50.010;8.260;2023-04-06T04:15:39;15.43;;;8.27;;
26656;SDS011;14279;50.010;8.260;2023-04-06T04:18:05;22.83;;;10.07;;
26656;SDS011;14279;50.010;8.260;2023-04-06T04:20:30;17.63;;;8.50;;
26656;SDS011;14279;50.010;8.260;2023-04-06T04:22:55;13.00;;;9.43;;
26656;SDS011;14279;50.010;8.260;2023-04-06T04:25:20;18.83;;;8.70;;
26656;SDS011;14279;50.010;8.260;2023-04-06T04:27:46;11.13;;;8.93;;
26656;SDS011;14279;50.010;8.260;2023-04-06T04:30:11;13.53;;;8.60;;
26656;SDS011;14279;50.010;8.260;2023-04-06T04:32:36;21.83;;;8.90;;
26656;SDS011;14279;50.010;8.260;2023-04-06T04:35:01;24.23;;;8.80;;
26656;SDS011;14279;50.010;8.260;2023-04-06T04:37:27;22.23;;;8.90;;
26656;SDS011;14279;50.010;8.260;2023-04-06T04:39:52;17.13;;;9.13;;
26656;SDS011;14279;50.010;8.260;2023-04-06T04:42:17;14.37;;;8.30;;
26656;SDS011;14279;50.010;8.260;2023-04-06T04:44:43;22.50;;;9.53;;
26656;SDS011;14279;50.010;8.260;2023-04-06T04:47:08;24.03;;;9.00;;
26656;SDS011;14279;50.010;8.260;2023-04-06T04:49:33;20.80;;;10.10;;
26656;SDS011;14279;50.010;8.260;2023-04-06T04:51:58;17.50;;;10.50;;
26656;SDS011;14279;50.010;8.260;2023-04-06T04:54:23;19.13;;;9.90;;
26656;SDS011;14279;50.010;8.260;2023-04-06T04:56:49;25.47;;;10.10;;
26656;SDS011;14279;50.010;8.260;2023-04-06T04:59:20;16.60;;;9.57;;
26656;SDS011;14279;50.010;8.260;2023-04-06T05:01:45;13.37;;;8.83;;
26656;SDS011;14279;50.010;8.260;2023-04-06T05:04:11;17.10;;;9.77;;
26656;SDS011;14279;50.010;8.260;2023-04-06T05:06:36;14.50;;;9.57;;
26656;SDS011;14279;50.010;8.260;2023-04-06T05:09:01;16.63;;;9.30;;
26656;SDS011;14279;50.010;8.260;2023-04-06T05:11:26;12.90;;;9.63;;
26656;SDS011;14279;50.010;8.260;2023-04-06T05:13:52;17.77;;;10.07;;
26656;SDS011;14279;50.010;8.260;2023-04-06T05:16:18;17.23;;;9.43;;
26656;SDS011;14279;50.010;8.260;2023-04-06T05:18:43;20.73;;;9.63;;
26656;SDS011;14279;50.010;8.260;2023-04-06T05:21:09;10.80;;;8.27;;
26656;SDS011;14279;50.010;8.260;2023-04-06T05:23:36;10.97;;;8.47;;
26656;SDS011;14279;50.010;8.260;2023-04-06T05:26:01;13.67;;;9.37;;
26656;SDS011;14279;50.010;8.260;2023-04-06T05:28:26;17.53;;;10.10;;
26656;SDS011;14279;50.010;8.260;2023-04-06T05:30:52;22.77;;;9.10;;
26656;SDS011;14279;50.010;8.260;2023-04-06T05:33:17;15.10;;;8.93;;
26656;SDS011;14279;50.010;8.260;2023-04-06T05:35:43;12.20;;;8.80;;
26656;SDS011;14279;50.010;8.260;2023-04-06T05:38:08;15.27;;;9.33;;
26656;SDS011;14279;50.010;8.260;2023-04-06T05:40:35;22.27;;;10.03;;
26656;SDS011;14279;50.010;8.260;2023-04-06T05:43:02;13.50;;;9.30;;
26656;SDS011;14279;50.010;8.260;2023-04-06T05:45:28;12.40;;;8.90;;
26656;SDS011;14279;50.010;8.260;2023-04-06T05:47:53;15.30;;;9.60;;
26656;SDS011;14279;50.010;8.260;2023-04-06T05:50:18;18.90;;;9.90;;
26656;SDS011;14279;50.010;8.260;2023-04-06T05:52:43;12.70;;;9.87;;
26656;SDS011;14279;50.010;8.260;2023-04-06T05:55:11;13.40;;;8.70;;
26656;SDS011;14279;50.010;8.260;2023-04-06T05:57:36;20.30;;;9.57;;
26656;SDS011;14279;50.010;8.260;2023-04-06T06:00:02;16.63;;;9.60;;
26656;SDS011;14279;50.010;8.260;2023-04-06T06:02:30;13.30;;;9.80;;
26656;SDS011;14279;50.010;8.260;2023-04-06T06:04:55;12.90;;;9.60;;
26656;SDS011;14279;50.010;8.260;2023-04-06T06:07:21;22.57;;;10.80;;
26656;SDS011;14279;50.010;8.260;2023-04-06T06:09:46;15.07;;;10.17;;
26656;SDS011;14279;50.010;8.260;2023-04-06T06:12:11;14.57;;;9.53;;
26656;SDS011;14279;50.010;8.260;2023-04-06T06:14:36;12.30;;;9.20;;
26656;SDS011;14279;50.010;8.260;2023-04-06T06:17:02;13.73;;;9.27;;
26656;SDS011;14279;50.010;8.260;2023-04-06T06:29:09;20.03;;;11.50;;
26656;SDS011;14279;50.010;8.260;2023-04-06T06:31:47;35.40;;;12.37;;
26656;SDS011;14279;50.010;8.260;2023-04-06T06:34:19;20.97;;;11.30;;
26656;SDS011;14279;50.010;8.260;2023-04-06T06:36:44;23.73;;;12.90;;
26656;SDS011;14279;50.010;8.260;2023-04-06T06:39:09;26.33;;;11.37;;
26656;SDS011;14279;50.010;8.260;2023-04-06T06:41:35;19.20;;;10.33;;
26656;SDS011;14279;50.010;8.260;2023-04-06T06:44:00;13.00;;;8.80;;
26656;SDS011;14279;50.010;8.260;2023-04-06T06:46:26;17.77;;;9.43;;
26656;SDS011;14279;50.010;8.260;2023-04-06T06:48:51;14.60;;;8.20;;
26656;SDS011;14279;50.010;8.260;2023-04-06T06:51:16;15.20;;;8.53;;
26656;SDS011;14279;50.010;8.260;2023-04-06T06:53:41;17.30;;;7.90;;
26656;SDS011;14279;50.010;8.260;2023-04-06T06:56:07;16.07;;;9.17;;
26656;SDS011;14279;50.010;8.260;2023-04-06T06:58:32;22.97;;;9.80;;
26656;SDS011;14279;50.010;8.260;2023-04-06T07:00:58;19.13;;;9.60;;
26656;SDS011;14279;50.010;8.260;2023-04-06T07:03:23;13.73;;;9.07;;
26656;SDS011;14279;50.010;8.260;2023-04-06T07:05:49;21.53;;;8.30;;
26656;SDS011;14279;50.010;8.260;2023-04-06T07:08:18;16.60;;;9.20;;
26656;SDS011;14279;50.010;8.260;2023-04-06T07:10:44;11.70;;;8.03;;
26656;SDS011;14279;50.010;8.260;2023-04-06T07:13:09;23.03;;;8.90;;
26656;SDS011;14279;50.010;8.260;2023-04-06T07:15:35;13.00;;;9.00;;
26656;SDS011;14279;50.010;8.260;2023-04-06T07:18:00;14.00;;;9.67;;
26656;SDS011;14279;50.010;8.260;2023-04-06T07:20:25;23.30;;;10.10;;
26656;SDS011;14279;50.010;8.260;2023-04-06T07:22:52;14.97;;;8.70;;
26656;SDS011;14279;50.010;8.260;2023-04-06T07:25:18;11.63;;;9.33;;
26656;SDS011;14279;50.010;8.260;2023-04-06T07:27:43;12.10;;;8.73;;
26656;SDS011;14279;50.010;8.260;2023-04-06T07:30:09;12.00;;;8.70;;
26656;SDS011;14279;50.010;8.260;2023-04-06T07:32:34;12.53;;;8.30;;
26656;SDS011;14279;50.010;8.260;2023-04-06T07:35:00;11.50;;;8.73;;
26656;SDS011;14279;50.010;8.260;2023-04-06T07:37:26;14.20;;;8.93;;
26656;SDS011;14279;50.010;8.260;2023-04-06T07:39:51;14.90;;;9.10;;
26656;SDS011;14279;50.010;8.260;2023-04-06T07:42:16;11.83;;;9.20;;
26656;SDS011;14279;50.010;8.260;2023-04-06T07:44:42;15.77;;;8.80;;
26656;SDS011;14279;50.010;8.260;2023-04-06T07:47:07;12.20;;;8.50;;
26656;SDS011;14279;50.010;8.260;2023-04-06T07:49:32;15.73;;;9.53;;
26656;SDS011;14279;50.010;8.260;2023-04-06T07:51:57;19.33;;;9.57;;
26656;SDS011;14279;50.010;8.260;2023-04-06T07:54:23;11.30;;;8.80;;
26656;SDS011;14279;50.010;8.260;2023-04-06T07:56:48;13.63;;;8.70;;
26656;SDS011;14279;50.010;8.260;2023-04-06T07:59:13;17.07;;;9.67;;
26656;SDS011;14279;50.010;8.260;2023-04-06T08:01:39;16.07;;;9.80;;
26656;SDS011;14279;50.010;8.260;2023-04-06T08:04:04;15.40;;;8.63;;
26656;SDS011;14279;50.010;8.260;2023-04-06T08:06:30;17.10;;;9.47;;
26656;SDS011;14279;50.010;8.260;2023-04-06T08:08:55;15.70;;;8.80;;
26656;SDS011;14279;50.010;8.260;2023-04-06T08:11:20;12.53;;;8.37;;
26656;SDS011;14279;50.010;8.260;2023-04-06T08:13:46;15.87;;;9.60;;
26656;SDS011;14279;50.010;8.260;2023-04-06T08:16:11;14.20;;;8.93;;
26656;SDS011;14279;50.010;8.260;2023-04-06T08:18:36;17.63;;;9.53;;
26656;SDS011;14279;50.010;8.260;2023-04-06T08:21:02;18.03;;;9.37;;
26656;SDS011;14279;50.010;8.260;2023-04-06T08:23:27;12.83;;;8.47;;
26656;SDS011;14279;50.010;8.260;2023-04-06T08:25:55;15.33;;;9.00;;
26656;SDS011;14279;50.010;8.260;2023-04-06T08:28:27;20.43;;;10.37;;
26656;SDS011;14279;50.010;8.260;2023-04-06T08:30:53;12.47;;;9.10;;
26656;SDS011;14279;50.010;8.260;2023-04-06T08:33:18;23.23;;;9.27;;
26656;SDS011;14279;50.010;8.260;2023-04-06T08:35:43;14.00;;;9.53;;
26656;SDS011;14279;50.010;8.260;2023-04-06T08:38:09;17.17;;;9.63;;
26656;SDS011;14279;50.010;8.260;2023-04-06T08:40:37;27.03;;;9.37;;
26656;SDS011;14279;50.010;8.260;2023-04-06T08:43:03;13.27;;;8.77;;
26656;SDS011;14279;50.010;8.260;2023-04-06T08:45:33;12.03;;;8.90;;
26656;SDS011;14279;50.010;8.260;2023-04-06T08:47:59;17.50;;;9.23;;
26656;SDS011;14279;50.010;8.260;2023-04-06T08:50:26;17.00;;;9.87;;
26656;SDS011;14279;50.010;8.260;2023-04-06T08:52:54;14.60;;;9.33;;
26656;SDS011;14279;50.010;8.260;2023-04-06T08:55:20;16.00;;;9.47;;
26656;SDS011;14279;50.010;8.260;2023-04-06T08:57:47;26.37;;;9.60;;
26656;SDS011;14279;50.010;8.260;2023-04-06T09:00:13;16.97;;;9.80;;
26656;SDS011;14279;50.010;8.260;2023-04-06T09:02:39;12.47;;;9.70;;
26656;SDS011;14279;50.010;8.260;2023-04-06T09:05:07;13.07;;;9.30;;
26656;SDS011;14279;50.010;8.260;2023-04-06T09:07:34;15.33;;;8.80;;
26656;SDS011;14279;50.010;8.260;2023-04-06T09:10:00;12.63;;;8.20;;
26656;SDS011;14279;50.010;8.260;2023-04-06T09:12:26;15.03;;;8.63;;
26656;SDS011;14279;50.010;8.260;2023-04-06T09:14:53;15.20;;;8.70;;
26656;SDS011;14279;50.010;8.260;2023-04-06T09:17:23;17.00;;;9.73;;
26656;SDS011;14279;50.010;8.260;2023-04-06T09:19:52;17.13;;;8.70;;
26656;SDS011;14279;50.010;8.260;2023-04-06T09:22:18;13.30;;;8.90;;
26656;SDS011;14279;50.010;8.260;2023-04-06T09:24:45;12.77;;;9.13;;
26656;SDS011;14279;50.010;8.260;2023-04-06T09:27:13;12.37;;;8.70;;
26656;SDS011;14279;50.010;8.260;2023-04-06T09:29:39;22.87;;;8.90;;
26656;SDS011;14279;50.010;8.260;2023-04-06T09:32:06;11.63;;;8.67;;
26656;SDS011;14279;50.010;8.260;2023-04-06T09:34:33;16.47;;;9.37;;
26656;SDS011;14279;50.010;8.260;2023-04-06T09:36:59;14.00;;;8.60;;
26656;SDS011;14279;50.010;8.260;2023-04-06T09:39:24;14.37;;;8.50;;
26656;SDS011;14279;50.010;8.260;2023-04-06T09:41:50;20.70;;;9.27;;
26656;SDS011;14279;50.010;8.260;2023-04-06T09:44:17;13.23;;;8.47;;
26656;SDS011;14279;50.010;8.260;2023-04-06T09:46:43;14.47;;;9.40;;
26656;SDS011;14279;50.010;8.260;2023-04-06T09:49:10;17.33;;;9.10;;
26656;SDS011;14279;50.010;8.260;2023-04-06T09:54:04;14.30;;;8.93;;
26656;SDS011;14279;50.010;8.260;2023-04-06T09:56:31;15.33;;;8.50;;
26656;SDS011;14279;50.010;8.260;2023-04-06T09:59:05;14.47;;;8.83;;
26656;SDS011;14279;50.010;8.260;2023-04-06T10:01:37;21.97;;;9.43;;
26656;SDS011;14279;50.010;8.260;2023-04-06T10:04:18;20.00;;;9.13;;
26656;SDS011;14279;50.010;8.260;2023-04-06T10:06:52;14.73;;;9.70;;
26656;SDS011;14279;50.010;8.260;2023-04-06T10:09:18;16.10;;;10.70;;
26656;SDS011;14279;50.010;8.260;2023-04-06T10:11:45;17.40;;;10.20;;
26656;SDS011;14279;50.010;8.260;2023-04-06T10:14:12;17.13;;;9.00;;
26656;SDS011;14279;50.010;8.260;2023-04-06T10:16:38;15.90;;;9.20;;
26656;SDS011;14279;50.010;8.260;2023-04-06T10:19:09;17.43;;;9.80;;
26656;SDS011;14279;50.010;8.260;2023-04-06T10:21:40;13.53;;;9.37;;
26656;SDS011;14279;50.010;8.260;2023-04-06T10:24:10;16.63;;;9.03;;
26656;SDS011;14279;50.010;8.260;2023-04-06T10:26:37;18.27;;;10.20;;
26656;SDS011;14279;50.010;8.260;2023-04-06T10:29:03;14.30;;;9.70;;
26656;SDS011;14279;50.010;8.260;2023-04-06T10:31:29;16.40;;;10.03;;
26656;SDS011;14279;50.010;8.260;2023-04-06T10:33:54;19.00;;;10.20;;
26656;SDS011;14279;50.010;8.260;2023-04-06T10:36:24;23.73;;;9.70;;
26656;SDS011;14279;50.010;8.260;2023-04-06T10:38:56;20.67;;;9.73;;
26656;SDS011;14279;50.010;8.260;2023-04-06T10:41:22;21.20;;;10.27;;
26656;SDS011;14279;50.010;8.260;2023-04-06T10:43:54;14.70;;;9.70;;
26656;SDS011;14279;50.010;8.260;2023-04-06T10:46:24;20.50;;;10.60;;
26656;SDS011;14279;50.010;8.260;2023-04-06T10:48:51;16.27;;;10.70;;
26656;SDS011;14279;50.010;8.260;2023-04-06T10:51:16;19.97;;;10.27;;
26656;SDS011;14279;50.010;8.260;2023-04-06T10:53:43;23.80;;;10.80;;
26656;SDS011;14279;50.010;8.260;2023-04-06T10:56:12;14.00;;;9.90;;
26656;SDS011;14279;50.010;8.260;2023-04-06T10:58:49;14.00;;;10.07;;
26656;SDS011;14279;50.010;8.260;2023-04-06T11:01:17;16.43;;;9.87;;
26656;SDS011;14279;50.010;8.260;2023-04-06T11:03:45;18.90;;;10.63;;
26656;SDS011;14279;50.010;8.260;2023-04-06T11:06:11;19.63;;;11.30;;
26656;SDS011;14279;50.010;8.260;2023-04-06T11:08:42;18.83;;;11.00;;
26656;SDS011;14279;50.010;8.260;2023-04-06T11:11:09;21.40;;;10.80;;
26656;SDS011;14279;50.010;8.260;2023-04-06T11:13:46;21.33;;;11.23;;
26656;SDS011;14279;50.010;8.260;2023-04-06T11:16:27;19.00;;;9.60;;
26656;SDS011;14279;50.010;8.260;2023-04-06T11:18:54;22.20;;;11.10;;
26656;SDS011;14279;50.010;8.260;2023-04-06T11:21:33;21.30;;;11.30;;
26656;SDS011;14279;50.010;8.260;2023-04-06T11:26:41;18.13;;;10.70;;
26656;SDS011;14279;50.010;8.260;2023-04-06T11:29:09;17.83;;;10.30;;
26656;SDS011;14279;50.010;8.260;2023-04-06T11:31:41;15.70;;;11.13;;
26656;SDS011;14279;50.010;8.260;2023-04-06T11:34:15;19.83;;;11.10;;
26656;SDS011;14279;50.010;8.260;2023-04-06T11:36:43;15.90;;;9.90;;
26656;SDS011;14279;50.010;8.260;2023-04-06T11:39:09;23.77;;;13.20;;
26656;SDS011;14279;50.010;8.260;2023-04-06T11:41:35;16.80;;;10.27;;
26656;SDS011;14279;50.010;8.260;2023-04-06T11:44:01;19.00;;;11.27;;
26656;SDS011;14279;50.010;8.260;2023-04-06T11:46:30;19.57;;;9.90;;
26656;SDS011;14279;50.010;8.260;2023-04-06T11:48:58;21.27;;;10.17;;
26656;SDS011;14279;50.010;8.260;2023-04-06T11:51:25;17.60;;;9.93;;
26656;SDS011;14279;50.010;8.260;2023-04-06T11:53:51;15.23;;;10.17;;
26656;SDS011;14279;50.010;8.260;2023-04-06T11:56:29;18.30;;;10.70;;
26656;SDS011;14279;50.010;8.260;2023-04-06T11:58:56;19.53;;;9.83;;
26656;SDS011;14279;50.010;8.260;2023-04-06T12:01:23;17.43;;;9.57;;
26656;SDS011;14279;50.010;8.260;2023-04-06T12:03:50;16.70;;;9.47;;
26656;SDS011;14279;50.010;8.260;2023-04-06T12:06:16;14.17;;;8.63;;
26656;SDS011;14279;50.010;8.260;2023-04-06T12:08:41;14.40;;;9.50;;
26656;SDS011;14279;50.010;8.260;2023-04-06T12:11:07;16.40;;;9.07;;
26656;SDS011;14279;50.010;8.260;2023-04-06T12:13:32;16.60;;;8.93;;
26656;SDS011;14279;50.010;8.260;2023-04-06T12:15:58;16.50;;;9.93;;
26656;SDS011;14279;50.010;8.260;2023-04-06T12:18:23;15.37;;;8.80;;
26656;SDS011;14279;50.010;8.260;2023-04-06T12:20:48;15.80;;;8.50;;
26656;SDS011;14279;50.010;8.260;2023-04-06T12:23:13;14.10;;;9.33;;
26656;SDS011;14279;50.010;8.260;2023-04-06T12:25:39;24.03;;;10.53;;
26656;SDS011;14279;50.010;8.260;2023-04-06T12:28:06;16.37;;;8.90;;
26656;SDS011;14279;50.010;8.260;2023-04-06T12:30:31;14.97;;;9.73;;
26656;SDS011;14279;50.010;8.260;2023-04-06T12:32:57;17.77;;;10.43;;
26656;SDS011;14279;50.010;8.260;2023-04-06T12:35:22;18.80;;;10.60;;
26656;SDS011;14279;50.010;8.260;2023-04-06T12:37:47;16.93;;;10.57;;
26656;SDS011;14279;50.010;8.260;2023-04-06T12:40:13;14.60;;;9.87;;
26656;SDS011;14279;50.010;8.260;2023-04-06T12:42:39;18.03;;;10.57;;
26656;SDS011;14279;50.010;8.260;2023-04-06T12:45:09;16.03;;;10.77;;
26656;SDS011;14279;50.010;8.260;2023-04-06T12:47:35;18.63;;;9.87;;
26656;SDS011;14279;50.010;8.260;2023-04-06T12:50:03;17.40;;;10.27;;
26656;SDS011;14279;50.010;8.260;2023-04-06T12:52:30;15.77;;;10.40;;
26656;SDS011;14279;50.010;8.260;2023-04-06T12:54:56;16.33;;;9.63;;
26656;SDS011;14279;50.010;8.260;2023-04-06T12:57:24;17.23;;;9.93;;
26656;SDS011;14279;50.010;8.260;2023-04-06T12:59:50;19.00;;;9.50;;
26656;SDS011;14279;50.010;8.260;2023-04-06T13:02:16;13.90;;;9.10;;
26656;SDS011;14279;50.010;8.260;2023-04-06T13:04:42;19.97;;;10.07;;
26656;SDS011;14279;50.010;8.260;2023-04-06T13:07:07;15.67;;;9.93;;
26656;SDS011;14279;50.010;8.260;2023-04-06T13:09:33;15.70;;;10.40;;
26656;SDS011;14279;50.010;8.260;2023-04-06T13:11:58;21.70;;;9.27;;
26656;SDS011;14279;50.010;8.260;2023-04-06T13:14:23;20.03;;;9.70;;
26656;SDS011;14279;50.010;8.260;2023-04-06T13:16:49;14.90;;;8.70;;
26656;SDS011;14279;50.010;8.260;2023-04-06T13:19:14;13.50;;;8.60;;
26656;SDS011;14279;50.010;8.260;2023-04-06T13:21:40;13.93;;;8.93;;
26656;SDS011;14279;50.010;8.260;2023-04-06T13:24:05;14.17;;;8.53;;
26656;SDS011;14279;50.010;8.260;2023-04-06T13:26:31;16.30;;;8.40;;
26656;SDS011;14279;50.010;8.260;2023-04-06T13:28:56;15.77;;;7.67;;
26656;SDS011;14279;50.010;8.260;2023-04-06T13:31:21;13.47;;;8.30;;
26656;SDS011;14279;50.010;8.260;2023-04-06T13:33:47;12.57;;;8.07;;
26656;SDS011;14279;50.010;8.260;2023-04-06T13:36:12;17.63;;;8.40;;
26656;SDS011;14279;50.010;8.260;2023-04-06T13:38:37;12.90;;;7.83;;
26656;SDS011;14279;50.010;8.260;2023-04-06T13:41:03;12.17;;;8.17;;
26656;SDS011;14279;50.010;8.260;2023-04-06T13:43:29;15.00;;;9.43;;
26656;SDS011;14279;50.010;8.260;2023-04-06T13:45:54;14.00;;;8.63;;
26656;SDS011;14279;50.010;8.260;2023-04-06T13:48:20;11.97;;;7.90;;
26656;SDS011;14279;50.010;8.260;2023-04-06T13:50:45;14.70;;;8.23;;
26656;SDS011;14279;50.010;8.260;2023-04-06T13:53:11;11.47;;;7.50;;
26656;SDS011;14279;50.010;8.260;2023-04-06T13:55:36;14.83;;;6.90;;
26656;SDS011;14279;50.010;8.260;2023-04-06T13:58:02;13.50;;;6.67;;
26656;SDS011;14279;50.010;8.260;2023-04-06T14:00:27;15.47;;;6.40;;
26656;SDS011;14279;50.010;8.260;2023-04-06T14:02:55;9.73;;;6.67;;
26656;SDS011;14279;50.010;8.260;2023-04-06T14:05:21;16.73;;;6.90;;
26656;SDS011;14279;50.010;8.260;2023-04-06T14:07:47;11.10;;;6.70;;
26656;SDS011;14279;50.010;8.260;2023-04-06T14:10:12;10.37;;;5.83;;
26656;SDS011;14279;50.010;8.260;2023-04-06T14:12:40;8.67;;;5.77;;
26656;SDS011;14279;50.010;8.260;2023-04-06T14:15:06;12.17;;;5.73;;
26656;SDS011;14279;50.010;8.260;2023-04-06T14:17:33;6.80;;;5.40;;
26656;SDS011;14279;50.010;8.260;2023-04-06T14:19:58;12.20;;;6.60;;
26656;SDS011;14279;50.010;8.260;2023-04-06T14:22:23;15.70;;;8.50;;
26656;SDS011;14279;50.010;8.260;2023-04-06T14:24:48;8.83;;;6.70;;
26656;SDS011;14279;50.010;8.260;2023-04-06T14:27:14;11.23;;;6.40;;
26656;SDS011;14279;50.010;8.260;2023-04-06T14:29:39;9.03;;;5.47;;
26656;SDS011;14279;50.010;8.260;2023-04-06T14:32:04;13.93;;;6.07;;
26656;SDS011;14279;50.010;8.260;2023-04-06T14:34:30;18.00;;;5.57;;
26656;SDS011;14279;50.010;8.260;2023-04-06T14:36:55;8.40;;;4.93;;
26656;SDS011;14279;50.010;8.260;2023-04-06T14:39:20;8.70;;;5.20;;
26656;SDS011;14279;50.010;8.260;2023-04-06T14:41:46;9.87;;;5.90;;